Flight Track Log - Related Links

Times and Time Zones

All times are in EDT time to prevent confusion due to time zone crossing. See the CRQ907 flight status page for this flight to view local times or setup timezone preferences in your user account.

Time Position Orientation Groundspeed Altitude Reporting Facility
EDT Latitude Longitude Course Direction KTS MPH feet Rate Location/Type
Sun 11:19:00 AM 52.1965 -78.5232 11° North  Level FlightAware
Sun 11:20:00 AM 52.2570 -78.5319 347° North  Level FlightAware
Sun 11:21:00 AM 52.3173 -78.5546 347° North  Level FlightAware
Sun 11:22:00 AM 52.3777 -78.5774 347° North  Level FlightAware
Sun 11:23:00 AM 52.4380 -78.6003 347° North  Level FlightAware
Sun 11:24:00 AM 52.4984 -78.6233 347° North  Level FlightAware
Sun 11:25:00 AM 52.5587 -78.6463 347° North  Level FlightAware
Sun 11:26:00 AM 52.6190 -78.6694 347° North  Level FlightAware
Sun 11:27:00 AM 52.6794 -78.6925 347° North  Level FlightAware
Sun 11:28:00 AM 52.7397 -78.7157 347° North  Level FlightAware
Sun 11:29:00 AM 52.8000 -78.7390 347° North  Level FlightAware
Sun 11:30:00 AM 52.8603 -78.7624 347° North  Level FlightAware
Sun 11:31:00 AM 52.9206 -78.7858 347° North  Level FlightAware
Sun 11:32:00 AM 52.9809 -78.8092 347° North  Level FlightAware
Sun 11:33:00 AM 53.0422 -78.8215 356° North  Level FlightAware
Sun 11:34:00 AM 53.1040 -78.8286 356° North  Level FlightAware
Sun 11:35:00 AM 53.1658 -78.8357 356° North  Level FlightAware
Sun 11:36:00 AM 53.2276 -78.8428 356° North  Level FlightAware
Sun 11:37:00 AM 53.2893 -78.8499 356° North  Level FlightAware
Sun 11:38:00 AM 53.3511 -78.8571 356° North  Level FlightAware
Sun 11:39:00 AM 53.4129 -78.8643 356° North  Level FlightAware
Sun 11:40:00 AM 53.4747 -78.8726 355° North  Level FlightAware
Sun 11:41:00 AM 53.5364 -78.8814 355° North  Level FlightAware
Sun 11:42:00 AM 53.5983 -78.8833 North  Level FlightAware
Sun 11:43:00 AM 53.6600 -78.8887 353° North  Level FlightAware
Sun 11:44:00 AM 53.7215 -78.9010 353° North  Level FlightAware
Sun 11:45:00 AM 53.7830 -78.9133 353° North  Level FlightAware
Sun 11:46:00 AM 53.8000 -78.9167 353° North  Level FlightAware
Sun 11:47:00 AM 53.8056 -78.9169 90° East  Level Estimated
Sun 11:48:00 AM 53.8000 -78.9167 353° North  Level FlightAware
Sun 11:49:00 AM 53.8056 -78.9169 90° East  Level Estimated
Sun 11:50:00 AM 53.8000 -78.9167 353° North  Level FlightAware
Sun 11:51:00 AM 53.8056 -78.9169 90° East  Level Estimated
Sun 11:52:00 AM 53.8000 -78.9167 353° North  Level FlightAware
Sun 11:53:00 AM 53.8056 -78.9169 90° East  Level Estimated
Sun 11:54:00 AM 53.8000 -78.9167 353° North  Level FlightAware
Sun 11:55:00 AM 53.8056 -78.9169 90° East  Level Estimated
Sun 11:56:00 AM 53.8000 -78.9167 353° North  Level FlightAware
Sun 11:57:00 AM 53.8056 -78.9169 90° East  Level Estimated
Sun 11:58:00 AM 53.8000 -78.9167 353° North  Level FlightAware
Sun 11:59:00 AM 53.8056 -78.9169 90° East  Level Estimated
Sun 12:00:00 PM 53.8000 -78.9167 353° North  Level FlightAware
Sun 12:01:00 PM 53.8056 -78.9169 90° East  Level Estimated

Login

Don't have an account? Register now (free) for customized features, flight alerts, and more!